createdAt,value
2022-09-12T00:01:25.531Z,99.90
2022-09-12T00:04:00.905Z,99.90
2022-09-12T00:06:31.629Z,99.90
2022-09-12T00:09:02.562Z,99.90
2022-09-12T00:11:30.520Z,99.90
2022-09-12T00:14:01.948Z,99.90
2022-09-12T00:16:32.352Z,99.90
2022-09-12T00:19:00.429Z,99.90
2022-09-12T00:21:28.149Z,99.90
2022-09-12T00:23:55.956Z,99.90
2022-09-12T00:26:25.520Z,99.90
2022-09-12T00:28:57.218Z,99.90
2022-09-12T00:31:26.886Z,99.90
2022-09-12T00:34:00.812Z,99.90
2022-09-12T00:36:30.349Z,99.90
2022-09-12T00:38:57.843Z,99.90
2022-09-12T00:41:34.528Z,99.90
2022-09-12T00:44:21.651Z,99.90
2022-09-12T00:47:14.155Z,99.90
2022-09-12T00:49:53.592Z,99.90
2022-09-12T00:52:41.838Z,99.90
2022-09-12T00:55:28.769Z,99.90
2022-09-12T00:58:16.201Z,99.90
2022-09-12T01:00:43.549Z,99.90
2022-09-12T01:03:18.002Z,99.90
2022-09-12T01:06:03.811Z,99.90
2022-09-12T01:08:37.298Z,99.90
2022-09-12T01:11:05.589Z,99.90
2022-09-12T01:13:35.681Z,99.90
2022-09-12T01:16:07.241Z,99.90
2022-09-12T01:19:21.408Z,99.90
2022-09-12T01:22:19.626Z,99.90
2022-09-12T01:25:12.659Z,99.90
2022-09-12T01:27:55.332Z,99.90
2022-09-12T01:30:54.075Z,99.90
2022-09-12T01:33:54.746Z,99.90
2022-09-12T01:36:43.240Z,99.90
2022-09-12T01:39:38.662Z,99.90
2022-09-12T01:42:47.018Z,99.90
2022-09-12T01:45:22.974Z,99.90
2022-09-12T01:48:01.220Z,99.90
2022-09-12T01:50:32.185Z,99.90
2022-09-12T01:53:29.555Z,99.90
2022-09-12T01:56:26.497Z,99.90
2022-09-12T01:59:03.973Z,99.90
2022-09-12T02:01:34.543Z,99.90
2022-09-12T02:04:09.765Z,99.90
2022-09-12T02:06:53.970Z,99.90
2022-09-12T02:09:25.592Z,99.90
2022-09-12T02:11:56.852Z,99.90
2022-09-12T02:14:28.485Z,99.90
2022-09-12T02:17:32.943Z,99.90
2022-09-12T02:20:06.765Z,99.90
2022-09-12T02:22:37.259Z,99.90
2022-09-12T02:25:09.377Z,99.90
2022-09-12T02:28:06.039Z,99.90
2022-09-12T02:30:43.219Z,99.90
2022-09-12T02:33:40.514Z,99.90
2022-09-12T02:36:31.673Z,99.90
2022-09-12T02:39:00.178Z,99.90
2022-09-12T02:41:27.676Z,99.90
2022-09-12T02:43:55.720Z,99.90
2022-09-12T02:46:35.848Z,99.90
2022-09-12T02:49:04.111Z,99.90
2022-09-12T02:51:36.090Z,99.90
2022-09-12T02:54:04.321Z,99.90
2022-09-12T02:56:36.559Z,99.90
2022-09-12T02:59:07.478Z,99.90
2022-09-12T03:01:43.505Z,99.90
2022-09-12T03:04:47.360Z,99.90
2022-09-12T03:07:43.433Z,99.90
2022-09-12T03:10:30.055Z,99.90
2022-09-12T03:13:25.373Z,99.90
2022-09-12T03:16:19.360Z,99.90
2022-09-12T03:18:51.845Z,99.90
2022-09-12T03:21:35.826Z,99.90
2022-09-12T03:24:26.145Z,99.90
2022-09-12T03:27:15.442Z,99.90
2022-09-12T03:29:46.208Z,99.90
2022-09-12T03:32:14.760Z,99.90
2022-09-12T03:34:41.992Z,99.90
2022-09-12T03:37:09.220Z,99.90
2022-09-12T03:39:36.671Z,99.90
2022-09-12T03:42:04.033Z,99.90
2022-09-12T03:44:33.030Z,99.90
2022-09-12T03:47:02.567Z,99.90
2022-09-12T03:49:29.766Z,99.90
2022-09-12T03:51:59.478Z,99.90
2022-09-12T03:54:29.516Z,99.90
2022-09-12T03:56:56.712Z,99.90
2022-09-12T03:59:23.927Z,99.90
2022-09-12T04:01:54.197Z,99.90
2022-09-12T04:04:23.753Z,99.90
2022-09-12T04:06:50.924Z,99.90
2022-09-12T04:09:18.140Z,99.90
2022-09-12T04:11:45.323Z,99.90
2022-09-12T04:14:15.038Z,99.90
2022-09-12T04:16:42.299Z,99.90
2022-09-12T04:19:12.060Z,99.90
2022-09-12T04:21:41.513Z,99.90
2022-09-12T04:24:09.222Z,99.90
2022-09-12T04:26:36.417Z,99.90
2022-09-12T04:29:03.975Z,99.90
2022-09-12T04:31:31.191Z,99.90
2022-09-12T04:34:03.814Z,99.90
2022-09-12T04:36:33.482Z,99.90
2022-09-12T04:39:02.023Z,99.90
2022-09-12T04:41:34.993Z,99.90
2022-09-12T04:44:08.251Z,99.90
2022-09-12T04:46:40.250Z,99.90
2022-09-12T04:49:10.007Z,99.90
2022-09-12T04:51:39.925Z,99.90
2022-09-12T04:54:11.527Z,99.90
2022-09-12T04:56:41.130Z,99.90
2022-09-12T04:59:09.281Z,99.90
2022-09-12T05:01:37.119Z,99.90
2022-09-12T05:04:04.666Z,99.90
2022-09-12T05:06:35.978Z,99.90
2022-09-12T05:09:06.580Z,99.90
2022-09-12T05:12:03.130Z,99.90
2022-09-12T05:14:26.748Z,99.90
2022-09-12T05:17:00.116Z,99.90
2022-09-12T05:19:28.547Z,99.90
2022-09-12T05:21:56.236Z,99.90
2022-09-12T05:24:24.248Z,99.90
2022-09-12T05:26:53.944Z,99.90
2022-09-12T05:29:26.099Z,99.90
2022-09-12T05:31:55.576Z,99.90
2022-09-12T05:34:23.379Z,99.90
2022-09-12T05:36:51.138Z,99.90
2022-09-12T05:39:18.625Z,99.90
2022-09-12T05:41:48.011Z,99.90
2022-09-12T05:44:15.585Z,99.90
2022-09-12T05:46:51.246Z,99.90
2022-09-12T05:49:18.971Z,99.90
2022-09-12T05:51:48.393Z,99.90
2022-09-12T05:54:18.072Z,99.90
2022-09-12T05:56:51.237Z,99.90
2022-09-12T05:59:21.548Z,99.90
2022-09-12T06:01:52.384Z,99.90
2022-09-12T06:04:23.740Z,99.90
2022-09-12T06:06:53.689Z,99.90
2022-09-12T06:09:20.953Z,99.90
2022-09-12T06:11:51.851Z,99.90
2022-09-12T06:14:19.989Z,99.90
2022-09-12T06:16:48.631Z,99.90
2022-09-12T06:19:22.166Z,99.90
2022-09-12T06:21:49.900Z,99.90
2022-09-12T06:24:18.681Z,99.90
2022-09-12T06:26:47.412Z,99.90
2022-09-12T06:29:15.416Z,99.90
2022-09-12T06:31:46.269Z,99.90
2022-09-12T06:34:15.375Z,99.90
2022-09-12T06:36:47.769Z,99.90
2022-09-12T06:39:17.771Z,99.90
2022-09-12T06:41:49.024Z,99.90
2022-09-12T06:44:24.621Z,99.90
2022-09-12T06:46:55.009Z,99.90
2022-09-12T06:49:22.193Z,99.90
2022-09-12T06:51:53.914Z,99.90
2022-09-12T06:54:26.501Z,99.90
2022-09-12T06:56:54.393Z,99.90
2022-09-12T06:59:24.194Z,99.90
2022-09-12T07:01:51.396Z,99.90
2022-09-12T07:04:21.158Z,99.90
2022-09-12T07:06:51.235Z,99.90
2022-09-12T07:09:18.873Z,99.90
2022-09-12T07:11:47.120Z,99.90
2022-09-12T07:14:15.338Z,99.90
2022-09-12T07:16:43.101Z,99.90
2022-09-12T07:19:12.939Z,99.90
2022-09-12T07:21:41.098Z,99.90
2022-09-12T07:24:10.100Z,99.90
2022-09-12T07:26:41.006Z,99.90
2022-09-12T07:32:05.921Z,99.90
2022-09-12T07:34:33.961Z,99.90
2022-09-12T07:37:03.880Z,99.90
2022-09-12T07:39:33.250Z,99.90
2022-09-12T07:42:01.108Z,99.90
2022-09-12T07:44:29.104Z,99.90
2022-09-12T07:46:56.438Z,99.90
2022-09-12T07:49:24.068Z,99.90
2022-09-12T07:51:54.341Z,99.90
2022-09-12T07:54:22.081Z,99.90
2022-09-12T07:56:51.719Z,99.00
2022-09-12T07:59:41.514Z,98.80
2022-09-12T08:02:12.446Z,97.80
2022-09-12T08:09:27.297Z,95.50
2022-09-12T08:11:57.059Z,94.40
2022-09-12T08:14:24.377Z,94.70
2022-09-12T08:16:52.162Z,93.40
2022-09-12T08:19:22.803Z,93.50
2022-09-12T08:21:52.908Z,92.80
2022-09-12T08:24:20.168Z,93.00
2022-09-12T08:26:47.374Z,92.20
2022-09-12T08:29:21.695Z,92.20
2022-09-12T08:31:51.879Z,91.20
2022-09-12T08:34:21.348Z,91.10
2022-09-12T08:36:49.074Z,91.80
2022-09-12T08:39:18.417Z,90.90
2022-09-12T08:41:48.367Z,90.70
2022-09-12T08:44:46.822Z,90.50
2022-09-12T08:47:45.041Z,89.80
2022-09-12T08:50:19.408Z,90.60
2022-09-12T08:52:52.611Z,90.10
2022-09-12T08:55:24.830Z,90.80
2022-09-12T08:57:54.724Z,90.00
2022-09-12T09:00:22.640Z,90.90
2022-09-12T09:03:05.426Z,89.40
2022-09-12T09:06:17.183Z,88.90
2022-09-12T09:08:58.795Z,87.10
2022-09-12T09:12:02.151Z,84.30
2022-09-12T09:14:52.150Z,81.50
2022-09-12T09:17:32.369Z,83.20
2022-09-12T09:20:22.773Z,81.90
2022-09-12T09:22:55.866Z,82.00
2022-09-12T09:25:36.911Z,83.00
2022-09-12T09:28:21.015Z,81.30
2022-09-12T09:30:48.861Z,79.40
2022-09-12T09:33:25.347Z,78.20
2022-09-12T09:35:56.922Z,77.20
2022-09-12T09:38:31.534Z,76.40
2022-09-12T09:41:11.592Z,76.30
2022-09-12T09:43:41.768Z,75.50
2022-09-12T09:46:09.495Z,74.20
2022-09-12T09:48:39.119Z,72.80
2022-09-12T09:51:08.079Z,72.60
2022-09-12T09:54:04.434Z,71.90
2022-09-12T09:56:44.493Z,68.30
2022-09-12T09:59:14.445Z,71.50
2022-09-12T10:02:13.699Z,68.60
2022-09-12T10:04:52.688Z,68.80
2022-09-12T10:07:21.747Z,66.70
2022-09-12T10:10:08.759Z,69.70
2022-09-12T10:12:36.241Z,66.00
2022-09-12T10:15:21.457Z,64.90
2022-09-12T10:17:51.086Z,66.40
2022-09-12T10:20:41.371Z,65.10
2022-09-12T10:23:30.881Z,65.20
2022-09-12T10:26:04.205Z,64.60
2022-09-12T10:28:45.115Z,65.70
2022-09-12T10:31:18.130Z,65.50
2022-09-12T10:33:53.206Z,65.70
2022-09-12T10:36:22.336Z,63.90
2022-09-12T10:38:57.730Z,65.50
2022-09-12T10:41:25.542Z,64.30
2022-09-12T10:44:07.765Z,64.50
2022-09-12T10:46:34.969Z,65.00
2022-09-12T10:49:22.433Z,65.90
2022-09-12T10:51:51.000Z,63.60
2022-09-12T10:54:20.968Z,64.90
2022-09-12T10:57:10.104Z,65.10
2022-09-12T10:59:51.864Z,63.40
2022-09-12T11:02:43.188Z,63.90
2022-09-12T11:05:36.751Z,64.10
2022-09-12T11:08:18.941Z,63.20
2022-09-12T11:11:11.563Z,64.00
2022-09-12T11:14:03.374Z,65.10
2022-09-12T11:16:49.457Z,66.10
2022-09-12T11:19:53.801Z,63.20
2022-09-12T11:22:41.215Z,62.20
2022-09-12T11:25:37.533Z,63.90
2022-09-12T11:28:22.295Z,63.70
2022-09-12T11:31:10.956Z,63.10
2022-09-12T11:33:47.658Z,64.60
2022-09-12T11:36:36.422Z,61.40
2022-09-12T11:39:15.222Z,59.30
2022-09-12T11:41:48.359Z,59.70
2022-09-12T11:44:21.447Z,59.40
2022-09-12T11:46:52.153Z,61.10
2022-09-12T11:49:35.394Z,59.80
2022-09-12T11:52:24.290Z,60.20
2022-09-12T11:55:17.574Z,59.40
2022-09-12T11:57:57.977Z,57.80
2022-09-12T12:00:38.270Z,59.10
2022-09-12T12:03:20.537Z,59.10
2022-09-12T12:05:59.219Z,58.60
2022-09-12T12:08:33.544Z,59.10
2022-09-12T12:11:03.453Z,60.00
2022-09-12T12:13:40.369Z,61.60
2022-09-12T12:16:14.200Z,61.60
2022-09-12T12:18:46.472Z,61.70
2022-09-12T12:21:29.310Z,61.80
2022-09-12T12:24:08.600Z,58.50
2022-09-12T12:26:44.949Z,62.10
2022-09-12T12:29:18.157Z,60.90
2022-09-12T12:32:03.684Z,58.00
2022-09-12T12:34:35.800Z,60.10
2022-09-12T12:37:29.669Z,59.20
2022-09-12T12:40:09.071Z,62.10
2022-09-12T12:42:36.365Z,58.20
2022-09-12T12:45:11.058Z,59.50
2022-09-12T12:47:38.191Z,58.90
2022-09-12T12:50:26.152Z,58.80
2022-09-12T12:52:57.707Z,59.90
2022-09-12T12:55:39.196Z,61.60
2022-09-12T12:58:40.638Z,59.50
2022-09-12T13:01:26.735Z,58.50
2022-09-12T13:03:59.609Z,58.10
2022-09-12T13:06:40.746Z,58.30
2022-09-12T13:09:34.626Z,58.80
2022-09-12T13:12:11.477Z,59.10
2022-09-12T13:14:55.949Z,58.50
2022-09-12T13:17:32.861Z,62.50
2022-09-12T13:20:27.800Z,60.10
2022-09-12T13:22:56.752Z,61.20
2022-09-12T13:25:29.203Z,63.80
2022-09-12T13:28:13.331Z,61.20
2022-09-12T13:30:45.322Z,60.50
2022-09-12T13:33:28.574Z,60.90
2022-09-12T13:36:18.123Z,61.60
2022-09-12T13:38:50.726Z,61.20
2022-09-12T13:41:38.918Z,63.20
2022-09-12T13:44:13.205Z,62.90
2022-09-12T13:46:41.332Z,63.80
2022-09-12T13:49:21.904Z,61.80
2022-09-12T13:52:04.868Z,62.30
2022-09-12T13:54:38.885Z,62.00
2022-09-12T13:57:09.265Z,63.90
2022-09-12T13:59:44.568Z,61.80
2022-09-12T14:02:22.962Z,62.60
2022-09-12T14:05:11.914Z,63.20
2022-09-12T14:07:51.174Z,63.40
2022-09-12T14:10:31.111Z,63.70
2022-09-12T14:13:01.000Z,64.80
2022-09-12T14:15:34.072Z,62.70
2022-09-12T14:18:04.654Z,62.50
2022-09-12T14:20:36.678Z,63.10
2022-09-12T14:23:14.926Z,63.10
2022-09-12T14:25:47.956Z,66.40
2022-09-12T14:28:23.559Z,64.60
2022-09-12T14:31:19.068Z,69.90
2022-09-12T14:33:49.911Z,66.50
2022-09-12T14:36:39.732Z,63.20
2022-09-12T14:39:23.920Z,64.50
2022-09-12T14:42:01.408Z,65.10
2022-09-12T14:44:31.062Z,63.80
2022-09-12T14:47:13.821Z,64.00
2022-09-12T14:49:41.942Z,63.20
2022-09-12T14:52:32.340Z,65.00
2022-09-12T14:55:20.221Z,65.70
2022-09-12T14:57:47.975Z,65.90
2022-09-12T15:00:22.662Z,63.90
2022-09-12T15:02:54.749Z,63.70
2022-09-12T15:05:25.268Z,67.00
2022-09-12T15:07:56.547Z,67.20
2022-09-12T15:10:38.119Z,64.70
2022-09-12T15:13:15.216Z,63.90
2022-09-12T15:15:45.380Z,64.60
2022-09-12T15:18:13.824Z,67.40
2022-09-12T15:20:43.047Z,66.40
2022-09-12T15:23:18.760Z,65.00
2022-09-12T15:25:46.467Z,64.50
2022-09-12T15:28:18.496Z,64.70
2022-09-12T15:30:51.277Z,65.70
2022-09-12T15:33:21.064Z,63.30
2022-09-12T15:35:48.487Z,64.60
2022-09-12T15:38:16.498Z,65.40
2022-09-12T15:40:43.777Z,65.70
2022-09-12T15:43:13.491Z,65.90
2022-09-12T15:45:49.800Z,67.40
2022-09-12T15:48:17.830Z,66.60
2022-09-12T15:50:45.490Z,68.30
2022-09-12T15:53:17.000Z,67.70
2022-09-12T15:55:45.246Z,67.10
2022-09-12T15:58:14.024Z,66.00
2022-09-12T16:00:41.706Z,68.20
2022-09-12T16:03:23.280Z,67.80
2022-09-12T16:05:56.440Z,67.20
2022-09-12T16:08:27.741Z,67.10
2022-09-12T16:10:58.086Z,66.70
2022-09-12T16:13:29.051Z,66.10
2022-09-12T16:16:03.106Z,68.20
2022-09-12T16:18:32.707Z,67.90
2022-09-12T16:21:01.999Z,67.70
2022-09-12T16:23:29.231Z,67.50
2022-09-12T16:26:01.232Z,67.90
2022-09-12T16:28:29.293Z,68.70
2022-09-12T16:31:01.754Z,69.10
2022-09-12T16:33:31.887Z,67.20
2022-09-12T16:36:10.756Z,68.50
2022-09-12T16:38:42.876Z,71.80
2022-09-12T16:41:11.497Z,71.40
2022-09-12T16:43:39.947Z,70.20
2022-09-12T16:46:14.219Z,69.50
2022-09-12T16:48:52.167Z,69.50
2022-09-12T16:51:23.253Z,71.10
2022-09-12T16:53:50.866Z,74.50
2022-09-12T16:56:23.060Z,76.30
2022-09-12T16:58:51.024Z,76.90
2022-09-12T17:01:21.743Z,79.50
2022-09-12T17:03:53.321Z,80.60
2022-09-12T17:06:21.905Z,81.50
2022-09-12T17:08:51.796Z,82.00
2022-09-12T17:11:24.787Z,82.00
2022-09-12T17:14:10.120Z,83.10
2022-09-12T17:16:40.984Z,85.10
2022-09-12T17:19:12.476Z,85.30
2022-09-12T17:21:39.716Z,85.80
2022-09-12T17:24:07.082Z,86.40
2022-09-12T17:26:34.468Z,87.40
2022-09-12T17:29:02.494Z,88.10
2022-09-12T17:31:30.414Z,88.80
2022-09-12T17:34:02.009Z,88.40
2022-09-12T17:36:31.966Z,89.20
2022-09-12T17:38:59.648Z,89.70
2022-09-12T17:41:29.225Z,89.50
2022-09-12T17:43:58.480Z,89.20
2022-09-12T17:46:37.754Z,88.80
2022-09-12T17:49:08.717Z,89.10
2022-09-12T17:51:36.111Z,89.80
2022-09-12T17:54:08.373Z,90.30
2022-09-12T17:56:37.622Z,90.60
2022-09-12T17:59:09.882Z,91.20
2022-09-12T18:01:58.157Z,91.30
2022-09-12T18:04:29.883Z,91.50
2022-09-12T18:06:57.882Z,91.60
2022-09-12T18:09:27.965Z,92.10
2022-09-12T18:11:57.857Z,92.30
2022-09-12T18:14:28.233Z,92.40
2022-09-12T18:16:57.292Z,92.80
2022-09-12T18:19:28.218Z,93.60
2022-09-12T18:21:58.514Z,93.60
2022-09-12T18:24:28.102Z,93.60
2022-09-12T18:26:59.276Z,93.80
2022-09-12T18:29:28.003Z,93.90
2022-09-12T18:31:55.845Z,94.10
2022-09-12T18:34:23.536Z,94.50
2022-09-12T18:36:54.273Z,94.90
2022-09-12T18:39:27.704Z,95.40
2022-09-12T18:41:55.606Z,95.60
2022-09-12T18:44:22.862Z,96.00
2022-09-12T18:46:50.643Z,95.70
2022-09-12T18:49:18.475Z,95.70
2022-09-12T18:51:45.804Z,95.60
2022-09-12T18:54:14.413Z,96.10
2022-09-12T18:56:43.922Z,96.40
2022-09-12T18:59:14.121Z,96.70
2022-09-12T19:01:42.282Z,97.00
2022-09-12T19:04:11.895Z,97.30
2022-09-12T19:06:44.348Z,97.50
2022-09-12T19:09:15.878Z,97.70
2022-09-12T19:11:48.942Z,98.10
2022-09-12T19:14:17.709Z,98.50
2022-09-12T19:16:47.483Z,99.00
2022-09-12T19:19:14.891Z,99.30
2022-09-12T19:21:45.378Z,99.60
2022-09-12T19:24:14.421Z,99.90
2022-09-12T19:26:42.036Z,99.90
2022-09-12T19:29:10.620Z,99.90
2022-09-12T19:31:38.030Z,99.90
2022-09-12T19:34:10.614Z,99.90
2022-09-12T19:36:45.343Z,99.90
2022-09-12T19:39:14.131Z,99.90
2022-09-12T19:41:41.830Z,99.90
2022-09-12T19:44:11.710Z,99.90
2022-09-12T19:46:39.175Z,99.90
2022-09-12T19:49:09.586Z,99.90
2022-09-12T19:51:39.886Z,99.90
2022-09-12T19:54:09.591Z,99.90
2022-09-12T19:56:37.027Z,99.90
2022-09-12T19:59:05.163Z,99.90
2022-09-12T20:01:33.162Z,99.90
2022-09-12T20:04:00.589Z,99.90
2022-09-12T20:06:30.374Z,99.90
2022-09-12T20:08:58.086Z,99.90
2022-09-12T20:11:25.592Z,99.90
2022-09-12T20:13:55.651Z,99.90
2022-09-12T20:16:29.182Z,99.90
2022-09-12T20:19:09.435Z,99.90
2022-09-12T20:21:37.557Z,99.90
2022-09-12T20:24:11.822Z,99.90
2022-09-12T20:26:42.541Z,99.90
2022-09-12T20:29:10.989Z,99.90
2022-09-12T20:31:40.351Z,99.90
2022-09-12T20:34:13.066Z,99.90
2022-09-12T20:36:40.434Z,99.90
2022-09-12T20:39:07.938Z,99.90
2022-09-12T20:41:38.366Z,99.90
2022-09-12T20:44:06.025Z,99.90
2022-09-12T20:46:33.616Z,99.90
2022-09-12T20:49:01.426Z,99.90
2022-09-12T20:51:30.334Z,99.90
2022-09-12T20:54:01.317Z,99.90
2022-09-12T20:56:29.447Z,99.90
2022-09-12T20:58:57.634Z,99.90
2022-09-12T21:01:27.100Z,99.90
2022-09-12T21:03:54.744Z,99.90
2022-09-12T21:06:24.486Z,99.90
2022-09-12T21:08:51.912Z,99.90
2022-09-12T21:11:20.751Z,99.90
2022-09-12T21:13:48.638Z,99.90
2022-09-12T21:16:18.938Z,99.90
2022-09-12T21:18:52.776Z,99.90
2022-09-12T21:21:19.993Z,99.90
2022-09-12T21:23:47.342Z,99.90
2022-09-12T21:26:14.769Z,99.90
2022-09-12T21:28:42.059Z,99.90
2022-09-12T21:31:11.560Z,99.90
2022-09-12T21:33:38.857Z,99.90
2022-09-12T21:36:07.216Z,99.90
2022-09-12T21:38:34.932Z,99.90
2022-09-12T21:41:11.504Z,99.90
2022-09-12T21:43:40.430Z,99.90
2022-09-12T21:46:08.213Z,99.90
2022-09-12T21:48:38.201Z,99.90
2022-09-12T21:51:08.093Z,99.90
2022-09-12T21:53:37.536Z,99.90
2022-09-12T21:56:07.473Z,99.90
2022-09-12T21:58:35.529Z,99.90
2022-09-12T22:01:04.835Z,99.90
2022-09-12T22:03:34.600Z,99.90
2022-09-12T22:06:04.966Z,99.90
2022-09-12T22:08:35.945Z,99.90
2022-09-12T22:11:09.265Z,99.90
2022-09-12T22:13:43.317Z,99.90
2022-09-12T22:16:11.820Z,99.90
2022-09-12T22:18:39.158Z,99.90
2022-09-12T22:21:09.530Z,99.90
2022-09-12T22:23:55.077Z,99.90
2022-09-12T22:26:23.317Z,99.90
2022-09-12T22:28:50.932Z,99.90
2022-09-12T22:31:18.927Z,99.90
2022-09-12T22:33:46.317Z,99.90
2022-09-12T22:36:15.847Z,99.90
2022-09-12T22:38:43.130Z,99.90
2022-09-12T22:41:12.053Z,99.90
2022-09-12T22:43:39.512Z,99.90
2022-09-12T22:46:12.501Z,99.90
2022-09-12T22:48:40.651Z,99.90
2022-09-12T22:51:08.559Z,99.90
2022-09-12T22:53:36.255Z,99.90
2022-09-12T22:56:05.099Z,99.90
2022-09-12T22:58:33.487Z,99.90
2022-09-12T23:01:00.778Z,99.90
2022-09-12T23:03:30.445Z,99.90
2022-09-12T23:05:58.272Z,99.90
2022-09-12T23:08:29.660Z,99.90
2022-09-12T23:11:11.230Z,99.90
2022-09-12T23:13:39.568Z,99.90
2022-09-12T23:16:08.104Z,99.90
2022-09-12T23:18:37.180Z,99.90
2022-09-12T23:21:09.857Z,99.90
2022-09-12T23:23:37.990Z,99.90
2022-09-12T23:26:17.432Z,99.90
2022-09-12T23:28:53.588Z,99.90
2022-09-12T23:31:23.425Z,99.90
2022-09-12T23:33:54.477Z,99.90
2022-09-12T23:36:24.967Z,99.90
2022-09-12T23:38:52.232Z,99.90
2022-09-12T23:41:19.504Z,99.90
2022-09-12T23:43:47.068Z,99.90
2022-09-12T23:46:18.311Z,99.90
2022-09-12T23:48:46.222Z,99.90
2022-09-12T23:51:13.681Z,99.90
2022-09-12T23:53:41.660Z,99.90
2022-09-12T23:56:10.020Z,99.90
2022-09-12T23:58:37.537Z,99.90
